createdAt,value
2018-08-13T00:02:20.757Z,96852.15
2018-08-13T00:04:49.760Z,96845.03
2018-08-13T00:07:18.798Z,96846.08
2018-08-13T00:09:47.790Z,96846.08
2018-08-13T00:12:17.091Z,96840.84
2018-08-13T00:14:46.111Z,96841.16
2018-08-13T00:17:15.067Z,96839.48
2018-08-13T00:19:44.031Z,96827.79
2018-08-13T00:22:12.992Z,96826.95
2018-08-13T00:24:41.943Z,96823.92
2018-08-13T00:27:10.860Z,96826.11
2018-08-13T00:29:39.864Z,96816.28
2018-08-13T00:32:08.814Z,96823.08
2018-08-13T00:34:37.819Z,96814.08
2018-08-13T00:37:06.871Z,96814.60
2018-08-13T00:39:35.956Z,96809.16
2018-08-13T00:42:04.985Z,96807.80
2018-08-13T00:44:34.315Z,96809.16
2018-08-13T00:47:03.318Z,96806.13
2018-08-13T00:49:32.388Z,96806.44
2018-08-13T00:52:01.542Z,96801.20
2018-08-13T00:54:31.990Z,96793.56
2018-08-13T00:57:02.251Z,96792.00
2018-08-13T00:59:31.500Z,96793.89
2018-08-13T01:02:01.654Z,96794.93
2018-08-13T01:04:31.926Z,96795.24
2018-08-13T01:07:01.411Z,96792.20
2018-08-13T01:09:32.177Z,96787.61
2018-08-13T01:12:02.127Z,96775.89
2018-08-13T01:14:31.546Z,96774.53
2018-08-13T01:17:01.683Z,96775.05
2018-08-13T01:19:31.452Z,96771.49
2018-08-13T01:22:00.687Z,96765.22
2018-08-13T01:24:30.712Z,96770.13
2018-08-13T01:27:00.099Z,96772.33
2018-08-13T01:29:29.378Z,96763.33
2018-08-13T01:31:59.740Z,96761.14
2018-08-13T01:34:29.915Z,96758.94
2018-08-13T01:36:59.081Z,96757.05
2018-08-13T01:39:28.581Z,96754.86
2018-08-13T01:41:57.862Z,96754.02
2018-08-13T01:44:26.823Z,96749.94
2018-08-13T01:46:55.763Z,96746.38
2018-08-13T01:49:24.694Z,96756.73
2018-08-13T01:51:53.638Z,96750.46
2018-08-13T01:54:22.582Z,96744.19
2018-08-13T01:56:51.578Z,96742.83
2018-08-13T01:59:20.532Z,96746.91
2018-08-13T02:01:49.657Z,96745.27
2018-08-13T02:04:18.604Z,96745.27
2018-08-13T02:06:48.020Z,96747.45
2018-08-13T02:09:16.977Z,96744.42
2018-08-13T02:11:45.938Z,96740.03
2018-08-13T02:14:15.358Z,96734.91
2018-08-13T02:16:44.336Z,96733.23
2018-08-13T02:19:13.321Z,96732.91
2018-08-13T02:21:42.542Z,96731.03
2018-08-13T02:24:11.491Z,96731.55
2018-08-13T02:26:40.470Z,96723.92
2018-08-13T02:29:10.123Z,96717.95
2018-08-13T02:31:39.387Z,96714.61
2018-08-13T02:34:08.779Z,96712.72
2018-08-13T02:36:38.619Z,96715.76
2018-08-13T02:39:09.969Z,96712.72
2018-08-13T02:41:40.401Z,96704.56
2018-08-13T02:44:09.371Z,96697.77
2018-08-13T02:46:39.698Z,96699.65
2018-08-13T02:49:09.568Z,96694.70
2018-08-13T02:51:38.941Z,96682.81
2018-08-13T02:54:08.745Z,96676.19
2018-08-13T02:56:38.159Z,96673.81
2018-08-13T02:59:08.723Z,96669.39
2018-08-13T03:01:39.466Z,96667.19
2018-08-13T03:04:10.558Z,96665.30
2018-08-13T03:06:40.072Z,96656.31
2018-08-13T03:09:10.896Z,96661.23
2018-08-13T03:11:42.160Z,96655.48
2018-08-13T03:14:11.564Z,96651.40
2018-08-13T03:16:41.510Z,96650.04
2018-08-13T03:19:12.212Z,96647.84
2018-08-13T03:21:42.124Z,96654.11
2018-08-13T03:24:11.687Z,96651.92
2018-08-13T03:26:42.768Z,96656.23
2018-08-13T03:29:12.686Z,96651.08
2018-08-13T03:31:42.076Z,96642.09
2018-08-13T03:34:11.398Z,96640.73
2018-08-13T03:36:40.572Z,96642.64
2018-08-13T03:39:12.143Z,96647.25
2018-08-13T03:41:43.601Z,96643.45
2018-08-13T03:44:13.454Z,96641.80
2018-08-13T03:46:43.436Z,96646.72
2018-08-13T03:49:13.026Z,96646.72
2018-08-13T03:51:43.086Z,96648.08
2018-08-13T03:54:13.224Z,96643.69
2018-08-13T03:56:42.362Z,96634.17
2018-08-13T03:59:11.675Z,96633.33
2018-08-13T04:01:42.411Z,96655.09
2018-08-13T04:04:11.707Z,96670.56
2018-08-13T04:06:41.253Z,96664.29
2018-08-13T04:09:10.624Z,96666.48
2018-08-13T04:11:40.519Z,96674.64
2018-08-13T04:14:10.570Z,96673.59
2018-08-13T04:16:40.385Z,96676.31
2018-08-13T04:19:10.722Z,96679.56
2018-08-13T04:21:41.067Z,96679.04
2018-08-13T04:24:11.351Z,96684.48
2018-08-13T04:26:41.920Z,96695.88
2018-08-13T04:29:11.817Z,96706.75
2018-08-13T04:31:41.286Z,96704.88
2018-08-13T04:34:11.011Z,96712.51
2018-08-13T04:36:40.504Z,96716.58
2018-08-13T04:39:12.685Z,96710.63
2018-08-13T04:41:43.750Z,96713.34
2018-08-13T04:44:14.119Z,96714.70
2018-08-13T04:46:43.362Z,96730.47
2018-08-13T04:49:12.579Z,96735.91
2018-08-13T04:51:42.471Z,96729.66
2018-08-13T04:54:12.443Z,96725.86
2018-08-13T04:56:41.900Z,96726.70
2018-08-13T04:59:11.196Z,96729.95
2018-08-13T05:01:40.598Z,96731.30
2018-08-13T05:04:09.873Z,96725.66
2018-08-13T05:06:39.145Z,96726.70
2018-08-13T05:09:09.442Z,96712.27
2018-08-13T05:11:38.698Z,96719.00
2018-08-13T05:14:07.788Z,96721.52
2018-08-13T05:16:36.718Z,96732.91
2018-08-13T05:19:05.970Z,96747.34
2018-08-13T05:21:34.936Z,96741.28
2018-08-13T05:24:03.956Z,96742.95
2018-08-13T05:26:32.895Z,96742.12
2018-08-13T05:29:02.247Z,96738.03
2018-08-13T05:31:31.254Z,96737.52
2018-08-13T05:34:00.386Z,96738.36
2018-08-13T05:36:29.404Z,96736.16
2018-08-13T05:38:58.874Z,96736.16
2018-08-13T05:41:27.879Z,96740.23
2018-08-13T05:43:56.813Z,96735.84
2018-08-13T05:46:25.775Z,96737.20
2018-08-13T05:48:55.071Z,96739.40
2018-08-13T05:51:24.026Z,96758.12
2018-08-13T05:53:53.214Z,96756.41
2018-08-13T05:56:22.383Z,96755.05
2018-08-13T05:58:51.670Z,96756.30
2018-08-13T06:01:20.630Z,96764.45
2018-08-13T06:03:49.586Z,96775.05
2018-08-13T06:06:19.308Z,96783.41
2018-08-13T06:08:48.547Z,96779.86
2018-08-13T06:11:17.716Z,96781.22
2018-08-13T06:13:47.015Z,96789.89
2018-08-13T06:16:16.134Z,96795.02
2018-08-13T06:18:45.174Z,96792.81
2018-08-13T06:21:14.503Z,96790.09
2018-08-13T06:23:43.570Z,96781.83
2018-08-13T06:26:12.563Z,96777.75
2018-08-13T06:28:41.509Z,96760.59
2018-08-13T06:31:10.610Z,96744.80
2018-08-13T06:33:39.753Z,96712.41
2018-08-13T06:36:09.063Z,96685.75
2018-08-13T06:38:38.066Z,96664.84
2018-08-13T06:41:07.079Z,96672.47
2018-08-13T06:43:36.483Z,96685.75
2018-08-13T06:46:05.427Z,96674.56
2018-08-13T06:48:34.374Z,96681.67
2018-08-13T06:51:03.469Z,96675.19
2018-08-13T06:53:32.767Z,96676.75
2018-08-13T06:56:01.754Z,96679.27
2018-08-13T06:58:30.762Z,96676.55
2018-08-13T07:00:59.698Z,96669.75
2018-08-13T07:03:28.691Z,96661.59
2018-08-13T07:05:57.663Z,96663.76
2018-08-13T07:08:26.621Z,96662.40
2018-08-13T07:10:55.559Z,96677.15
2018-08-13T07:13:24.558Z,96674.11
2018-08-13T07:15:53.515Z,96685.83
2018-08-13T07:18:22.910Z,96686.88
2018-08-13T07:20:52.155Z,96693.67
2018-08-13T07:23:23.083Z,96694.30
2018-08-13T07:25:52.569Z,96696.50
2018-08-13T07:28:21.497Z,96702.56
2018-08-13T07:30:50.425Z,96708.32
2018-08-13T07:33:19.437Z,96713.23
2018-08-13T07:35:50.152Z,96711.03
2018-08-13T07:38:19.103Z,96713.76
2018-08-13T07:40:48.116Z,96728.50
2018-08-13T07:43:17.081Z,96730.19
2018-08-13T07:45:46.365Z,96731.02
2018-08-13T07:48:15.286Z,96731.02
2018-08-13T07:50:44.266Z,96737.89
2018-08-13T07:53:13.201Z,96737.38
2018-08-13T07:55:42.139Z,96741.66
2018-08-13T07:58:11.090Z,96748.45
2018-08-13T08:00:40.072Z,96747.94
2018-08-13T08:03:09.055Z,96757.14
2018-08-13T08:05:38.023Z,96752.54
2018-08-13T08:08:07.412Z,96762.37
2018-08-13T08:10:36.455Z,96738.73
2018-08-13T08:13:05.416Z,96733.30
2018-08-13T08:15:34.376Z,96739.92
2018-08-13T08:18:03.799Z,96732.91
2018-08-13T08:20:32.758Z,96742.55
2018-08-13T08:23:01.755Z,96747.14
2018-08-13T08:25:30.706Z,96743.06
2018-08-13T08:27:59.698Z,96742.55
2018-08-13T08:30:28.966Z,96737.31
2018-08-13T08:32:57.948Z,96727.58
2018-08-13T08:35:26.883Z,96722.98
2018-08-13T08:37:55.846Z,96727.58
2018-08-13T08:40:24.834Z,96733.23
2018-08-13T08:42:53.814Z,96729.67
2018-08-13T08:45:27.445Z,96735.11
2018-08-13T08:47:57.114Z,96738.67
2018-08-13T08:50:27.072Z,96733.30
2018-08-13T08:52:56.077Z,96734.14
2018-08-13T08:55:25.026Z,96730.90
2018-08-13T08:57:53.974Z,96727.45
2018-08-13T09:00:24.263Z,96734.36
2018-08-13T09:02:53.538Z,96731.84
2018-08-13T09:05:22.594Z,96725.68
2018-08-13T09:07:51.566Z,96740.12
2018-08-13T09:10:20.510Z,96741.80
2018-08-13T09:12:49.452Z,96743.47
2018-08-13T09:15:18.808Z,96739.07
2018-08-13T09:17:59.574Z,96741.87
2018-08-13T09:20:39.579Z,96739.98
2018-08-13T09:23:19.634Z,96729.42
2018-08-13T09:26:00.559Z,96730.89
2018-08-13T09:28:40.970Z,96735.91
2018-08-13T09:32:24.771Z,96729.70
2018-08-13T09:35:32.164Z,96734.73
2018-08-13T09:38:01.180Z,96732.95
2018-08-13T09:40:31.366Z,96730.83
2018-08-13T09:43:00.470Z,96726.23
2018-08-13T09:45:29.434Z,96731.46
2018-08-13T09:47:58.379Z,96735.34
2018-08-13T09:50:27.717Z,96734.29
2018-08-13T09:52:56.816Z,96729.48
2018-08-13T09:55:25.851Z,96731.15
2018-08-13T09:57:54.820Z,96723.83
2018-08-13T10:00:28.816Z,96728.95
2018-08-13T10:02:57.760Z,96726.65
2018-08-13T10:05:26.697Z,96721.41
2018-08-13T10:07:55.923Z,96726.86
2018-08-13T10:10:24.895Z,96732.92
2018-08-13T10:12:53.864Z,96729.16
2018-08-13T10:15:23.254Z,96728.95
2018-08-13T10:17:52.212Z,96721.63
2018-08-13T10:20:22.255Z,96726.02
2018-08-13T10:22:51.188Z,96725.25
2018-08-13T10:25:20.128Z,96725.57
2018-08-13T10:27:49.423Z,96723.48
2018-08-13T10:30:18.688Z,96723.48
2018-08-13T10:32:48.375Z,96720.55
2018-08-13T10:35:18.315Z,96729.63
2018-08-13T10:37:47.673Z,96727.73
2018-08-13T10:40:19.636Z,96724.28
2018-08-13T10:42:49.663Z,96714.97
2018-08-13T10:45:19.063Z,96711.41
2018-08-13T10:47:49.844Z,96710.36
2018-08-13T10:50:19.078Z,96707.84
2018-08-13T10:52:49.368Z,96711.41
2018-08-13T10:55:18.826Z,96710.57
2018-08-13T10:57:49.485Z,96717.69
2018-08-13T11:00:19.434Z,96716.95
2018-08-13T11:02:48.818Z,96711.61
2018-08-13T11:05:18.277Z,96717.38
2018-08-13T11:07:47.243Z,96716.01
2018-08-13T11:10:16.744Z,96709.52
2018-08-13T11:12:45.707Z,96721.97
2018-08-13T11:15:17.570Z,96710.46
2018-08-13T11:17:46.942Z,96706.90
2018-08-13T11:20:17.178Z,96707.84
2018-08-13T11:22:46.598Z,96701.95
2018-08-13T11:25:16.532Z,96701.42
2018-08-13T11:27:46.025Z,96697.34
2018-08-13T11:32:53.762Z,96695.06
2018-08-13T11:35:23.000Z,96699.16
2018-08-13T11:37:53.010Z,96703.76
2018-08-13T11:40:22.109Z,96702.78
2018-08-13T11:42:52.714Z,96704.67
2018-08-13T11:45:22.232Z,96697.02
2018-08-13T11:47:52.279Z,96698.31
2018-08-13T11:50:24.396Z,96695.80
2018-08-13T11:52:54.880Z,96695.80
2018-08-13T11:55:24.207Z,96687.64
2018-08-13T11:57:53.678Z,96687.11
2018-08-13T12:00:22.987Z,96677.13
2018-08-13T12:02:52.469Z,96680.80
2018-08-13T12:05:22.046Z,96678.91
2018-08-13T12:07:51.430Z,96668.55
2018-08-13T12:10:20.655Z,96658.91
2018-08-13T12:12:50.474Z,96658.59
2018-08-13T12:15:19.856Z,96652.83
2018-08-13T12:17:49.052Z,96640.68
2018-08-13T12:20:20.298Z,96636.81
2018-08-13T12:22:49.668Z,96625.61
2018-08-13T12:25:21.519Z,96642.42
2018-08-13T12:27:50.748Z,96637.60
2018-08-13T12:30:19.959Z,96644.19
2018-08-13T12:32:50.162Z,96643.14
2018-08-13T12:35:19.707Z,96646.08
2018-08-13T12:37:48.753Z,96642.52
2018-08-13T12:40:18.744Z,96647.75
2018-08-13T12:42:47.984Z,96643.05
2018-08-13T12:45:18.285Z,96648.70
2018-08-13T12:47:47.634Z,96646.30
2018-08-13T12:50:18.308Z,96645.14
2018-08-13T12:52:48.960Z,96635.30
2018-08-13T12:55:18.898Z,96642.63
2018-08-13T12:57:49.038Z,96628.19
2018-08-13T13:00:19.067Z,96610.73
2018-08-13T13:02:48.721Z,96609.59
2018-08-13T13:05:19.251Z,96620.38
2018-08-13T13:07:48.356Z,96610.23
2018-08-13T13:10:19.467Z,96616.44
2018-08-13T13:12:48.894Z,96629.50
2018-08-13T13:15:19.765Z,96615.08
2018-08-13T13:17:49.224Z,96613.41
2018-08-13T13:20:22.154Z,96623.67
2018-08-13T13:22:51.706Z,96623.67
2018-08-13T13:25:22.159Z,96625.25
2018-08-13T13:27:52.617Z,96632.67
2018-08-13T13:30:22.331Z,96636.35
2018-08-13T13:32:51.407Z,96640.11
2018-08-13T13:35:20.662Z,96632.47
2018-08-13T13:37:50.556Z,96638.22
2018-08-13T13:40:21.285Z,96640.95
2018-08-13T13:42:50.495Z,96635.35
2018-08-13T13:45:21.098Z,96638.70
2018-08-13T13:47:50.343Z,96648.75
2018-08-13T13:50:20.155Z,96658.50
2018-08-13T13:52:49.581Z,96656.55
2018-08-13T13:55:18.715Z,96655.46
2018-08-13T13:57:48.054Z,96659.86
2018-08-13T14:00:22.335Z,96657.13
2018-08-13T14:02:55.871Z,96652.84
2018-08-13T14:05:25.939Z,96659.77
2018-08-13T14:07:55.588Z,96657.67
2018-08-13T14:11:39.359Z,96664.80
2018-08-13T14:14:09.127Z,96653.66
2018-08-13T14:16:38.443Z,96649.14
2018-08-13T14:19:08.174Z,96639.39
2018-08-13T14:21:38.307Z,96637.10
2018-08-13T14:24:07.368Z,96645.58
2018-08-13T14:26:37.052Z,96635.73
2018-08-13T14:29:06.293Z,96634.69
2018-08-13T14:31:35.594Z,96644.84
2018-08-13T14:34:04.984Z,96648.19
2018-08-13T14:36:34.314Z,96646.67
2018-08-13T14:39:03.777Z,96646.16
2018-08-13T14:41:33.212Z,96644.41
2018-08-13T14:44:02.515Z,96644.79
2018-08-13T14:46:31.715Z,96649.71
2018-08-13T14:49:01.003Z,96646.67
2018-08-13T14:51:31.053Z,96642.22
2018-08-13T14:54:01.475Z,96641.38
2018-08-13T14:56:31.946Z,96638.66
2018-08-13T14:59:03.363Z,96647.87
2018-08-13T15:01:32.971Z,96665.08
2018-08-13T15:04:02.571Z,96700.20
2018-08-13T15:06:31.677Z,96711.91
2018-08-13T15:09:01.266Z,96729.22
2018-08-13T15:11:39.891Z,96704.70
2018-08-13T15:14:11.094Z,96707.74
2018-08-13T15:16:40.331Z,96711.47
2018-08-13T15:19:10.564Z,96720.95
2018-08-13T15:21:39.958Z,96719.64
2018-08-13T15:24:09.164Z,96721.00
2018-08-13T15:26:38.338Z,96709.16
2018-08-13T15:29:07.488Z,96710.52
2018-08-13T15:31:36.822Z,96704.23
2018-08-13T15:34:06.196Z,96698.16
2018-08-13T15:36:36.348Z,96707.91
2018-08-13T15:39:07.920Z,96710.11
2018-08-13T15:41:37.107Z,96718.91
2018-08-13T15:44:17.737Z,96720.79
2018-08-13T15:46:53.726Z,96717.33
2018-08-13T15:49:23.043Z,96718.16
2018-08-13T15:51:52.499Z,96708.11
2018-08-13T15:54:36.077Z,96710.00
2018-08-13T15:57:29.955Z,96703.71
2018-08-13T16:00:00.349Z,96698.38
2018-08-13T16:02:31.399Z,96691.50
2018-08-13T16:05:00.474Z,96688.99
2018-08-13T16:07:29.669Z,96696.84
2018-08-13T16:09:59.521Z,96698.21
2018-08-13T16:12:28.511Z,96705.20
2018-08-13T16:14:58.215Z,96701.85
2018-08-13T16:17:27.933Z,96700.48
2018-08-13T16:19:57.424Z,96697.55
2018-08-13T16:22:26.712Z,96701.33
2018-08-13T16:24:56.950Z,96709.92
2018-08-13T16:27:26.589Z,96712.47
2018-08-13T16:29:56.818Z,96695.52
2018-08-13T16:32:26.149Z,96695.52
2018-08-13T16:34:55.920Z,96694.61
2018-08-13T16:37:27.651Z,96695.34
2018-08-13T16:40:01.436Z,96692.52
2018-08-13T16:42:31.016Z,96699.95
2018-08-13T16:45:00.514Z,96702.00
2018-08-13T16:47:30.761Z,96701.48
2018-08-13T16:50:00.761Z,96696.25
2018-08-13T16:52:30.016Z,96695.44
2018-08-13T16:54:59.892Z,96695.97
2018-08-13T16:57:30.467Z,96691.78
2018-08-13T16:59:59.855Z,96684.14
2018-08-13T17:02:47.975Z,96684.45
2018-08-13T17:05:19.951Z,96685.60
2018-08-13T17:07:49.101Z,96691.88
2018-08-13T17:10:22.764Z,96682.56
2018-08-13T17:12:56.576Z,96683.30
2018-08-13T17:15:27.066Z,96681.11
2018-08-13T17:17:57.808Z,96679.74
2018-08-13T17:20:30.613Z,96682.47
2018-08-13T17:23:00.580Z,96692.52
2018-08-13T17:25:29.986Z,96686.97
2018-08-13T17:27:59.701Z,96685.86
2018-08-13T17:30:29.211Z,96690.15
2018-08-13T17:33:00.776Z,96686.59
2018-08-13T17:35:31.850Z,96685.75
2018-08-13T17:38:01.571Z,96682.72
2018-08-13T17:40:31.275Z,96677.80
2018-08-13T17:43:04.270Z,96683.45
2018-08-13T17:45:33.866Z,96683.45
2018-08-13T17:48:04.868Z,96686.91
2018-08-13T17:50:36.731Z,96691.23
2018-08-13T17:53:06.652Z,96697.41
2018-08-13T17:55:36.056Z,96698.98
2018-08-13T17:58:05.825Z,96694.59
2018-08-13T18:00:35.243Z,96696.69
2018-08-13T18:03:04.784Z,96699.61
2018-08-13T18:05:34.689Z,96696.82
2018-08-13T18:08:04.408Z,96708.75
2018-08-13T18:10:34.834Z,96705.41
2018-08-13T18:13:06.233Z,96710.22
2018-08-13T18:15:35.612Z,96705.82
2018-08-13T18:18:05.556Z,96711.72
2018-08-13T18:20:34.951Z,96712.44
2018-08-13T18:23:04.910Z,96714.02
2018-08-13T18:25:34.107Z,96716.11
2018-08-13T18:28:03.460Z,96715.51
2018-08-13T18:30:32.672Z,96716.24
2018-08-13T18:33:02.258Z,96728.69
2018-08-13T18:35:33.187Z,96726.17
2018-08-13T18:38:03.152Z,96731.23
2018-08-13T18:40:34.266Z,96736.35
2018-08-13T18:43:03.725Z,96734.36
2018-08-13T18:45:33.491Z,96735.72
2018-08-13T18:48:02.984Z,96733.73
2018-08-13T18:50:32.790Z,96746.70
2018-08-13T18:53:02.202Z,96738.47
2018-08-13T18:55:31.948Z,96750.91
2018-08-13T18:58:01.268Z,96760.95
2018-08-13T19:00:31.475Z,96765.23
2018-08-13T19:03:01.938Z,96765.09
2018-08-13T19:05:31.259Z,96763.73
2018-08-13T19:08:00.674Z,96772.09
2018-08-13T19:10:30.267Z,96770.13
2018-08-13T19:13:00.778Z,96768.98
2018-08-13T19:15:30.654Z,96767.30
2018-08-13T19:18:00.355Z,96763.43
2018-08-13T19:20:30.032Z,96761.44
2018-08-13T19:22:59.692Z,96762.80
2018-08-13T19:25:29.771Z,96764.08
2018-08-13T19:28:00.516Z,96773.59
2018-08-13T19:30:31.509Z,96778.91
2018-08-13T19:33:01.363Z,96780.80
2018-08-13T19:35:30.743Z,96783.20
2018-08-13T19:37:59.867Z,96789.68
2018-08-13T19:40:29.297Z,96789.88
2018-08-13T19:42:58.833Z,96789.05
2018-08-13T19:45:28.176Z,96791.45
2018-08-13T19:47:57.574Z,96797.44
2018-08-13T19:50:28.162Z,96799.52
2018-08-13T19:52:59.247Z,96805.16
2018-08-13T19:55:29.260Z,96807.04
2018-08-13T19:57:58.521Z,96803.69
2018-08-13T20:00:29.456Z,96807.77
2018-08-13T20:02:59.260Z,96811.52
2018-08-13T20:05:29.243Z,96806.84
2018-08-13T20:07:58.591Z,96810.80
2018-08-13T20:10:28.546Z,96814.99
2018-08-13T20:12:57.802Z,96816.15
2018-08-13T20:15:26.987Z,96814.27
2018-08-13T20:17:56.391Z,96821.15
2018-08-13T20:20:26.005Z,96819.59
2018-08-13T20:22:55.190Z,96821.06
2018-08-13T20:25:25.466Z,96821.46
2018-08-13T20:27:58.739Z,96823.45
2018-08-13T20:30:28.159Z,96822.73
2018-08-13T20:32:57.936Z,96821.17
2018-08-13T20:35:27.432Z,96831.84
2018-08-13T20:37:56.948Z,96824.20
2018-08-13T20:40:26.436Z,96826.20
2018-08-13T20:42:55.987Z,96823.77
2018-08-13T20:45:25.349Z,96823.56
2018-08-13T20:47:54.736Z,96825.06
2018-08-13T20:50:25.325Z,96831.34
2018-08-13T20:52:55.488Z,96836.58
2018-08-13T20:55:28.047Z,96837.73
2018-08-13T20:57:57.499Z,96833.13
2018-08-13T21:00:28.492Z,96837.09
2018-08-13T21:02:59.030Z,96842.54
2018-08-13T21:05:28.451Z,96840.97
2018-08-13T21:07:58.040Z,96847.33
2018-08-13T21:10:28.124Z,96844.61
2018-08-13T21:12:57.443Z,96847.65
2018-08-13T21:15:28.472Z,96843.05
2018-08-13T21:17:57.912Z,96839.48
2018-08-13T21:20:28.805Z,96842.01
2018-08-13T21:22:58.863Z,96849.96
2018-08-13T21:25:28.452Z,96852.16
2018-08-13T21:27:57.672Z,96850.28
2018-08-13T21:30:27.581Z,96854.36
2018-08-13T21:32:56.857Z,96859.08
2018-08-13T21:35:26.718Z,96860.95
2018-08-13T21:37:56.611Z,96860.95
2018-08-13T21:40:25.803Z,96865.03
2018-08-13T21:42:56.068Z,96865.32
2018-08-13T21:45:25.420Z,96874.32
2018-08-13T21:47:56.469Z,96871.72
2018-08-13T21:50:25.714Z,96871.51
2018-08-13T21:52:55.072Z,96874.75
2018-08-13T21:55:24.383Z,96882.50
2018-08-13T21:57:55.353Z,96880.30
2018-08-13T22:00:29.140Z,96881.35
2018-08-13T22:02:59.794Z,96883.03
2018-08-13T22:05:29.756Z,96884.70
2018-08-13T22:07:59.091Z,96882.82
2018-08-13T22:10:29.094Z,96882.30
2018-08-13T22:12:58.466Z,96887.74
2018-08-13T22:15:32.760Z,96886.38
2018-08-13T22:18:06.402Z,96892.87
2018-08-13T22:20:36.677Z,96890.98
2018-08-13T22:23:06.786Z,96895.59
2018-08-13T22:25:41.839Z,96895.59
2018-08-13T22:28:11.820Z,96897.67
2018-08-13T22:30:41.814Z,96898.39
2018-08-13T22:33:12.035Z,96899.76
2018-08-13T22:35:41.662Z,96906.44
2018-08-13T22:38:11.303Z,96912.41
2018-08-13T22:40:40.823Z,96915.13
2018-08-13T22:43:10.264Z,96912.92
2018-08-13T22:45:39.907Z,96913.48
2018-08-13T22:48:10.292Z,96909.08
2018-08-13T22:50:39.868Z,96909.08
2018-08-13T22:53:09.360Z,96915.56
2018-08-13T22:55:39.183Z,96913.88
2018-08-13T22:58:09.357Z,96918.48
2018-08-13T23:00:38.804Z,96918.17
2018-08-13T23:03:08.732Z,96915.66
2018-08-13T23:05:38.010Z,96921.93
2018-08-13T23:08:07.841Z,96924.85
2018-08-13T23:10:37.047Z,96926.22
2018-08-13T23:13:12.215Z,96932.69
2018-08-13T23:15:41.560Z,96934.58
2018-08-13T23:18:11.112Z,96932.41
2018-08-13T23:20:41.340Z,96927.17
2018-08-13T23:23:10.706Z,96927.69
2018-08-13T23:25:40.220Z,96926.33
2018-08-13T23:28:11.905Z,96927.69
2018-08-13T23:30:41.198Z,96929.25
2018-08-13T23:33:10.753Z,96931.13
2018-08-13T23:35:40.247Z,96935.73
2018-08-13T23:38:09.563Z,96934.38
2018-08-13T23:40:38.876Z,96939.46
2018-08-13T23:43:08.809Z,96938.97
2018-08-13T23:45:38.183Z,96944.58
2018-08-13T23:48:07.599Z,96946.46
2018-08-13T23:50:37.097Z,96936.42
2018-08-13T23:53:06.489Z,96938.82
2018-08-13T23:55:38.301Z,96941.02
2018-08-13T23:58:10.103Z,96938.82
